Lenore, ID (83541)

1:31 PM PDT on July 26, 2016 (GMT -0700)
New Hope Subdivision | | Change Station

Elev 2087 ft 46.52 °N, 116.38 °W | Updated 47 minutes ago

Clear
Clear
89.8 °F
Feels Like 87 °F
N
3.4
Wind Variable Wind from West
Gusts 9.4 mph

Today
High -- | Low -- °F
--% Chance of Precip.
Yesterday
High -- | Low -- °F
Precip. -- in
Pressure 29.94 in
Visibility 10.0 miles
Clouds Clear
Heat Index 87 °F
Dew Point 53 °F
Humidity 29%
Rainfall 0.00 in
Snow Depth Not available.
5:20 AM 8:23 PM
Waning Gibbous, 51% visible
METAR KLWS 261956Z VRB04KT 10SM CLR 34/12 A2998 RMK AO2 SLP138 T03390122
Pressure 29.94 in
Visibility 10.0 miles
Clouds Clear
Heat Index 87 °F
Dew Point 53 °F
Humidity 29%
Rainfall 0.00 in
Snow Depth Not available.
5:20 AM 8:23 PM
Waning Gibbous, 51% visible
METAR KLWS 261956Z VRB04KT 10SM CLR 34/12 A2998 RMK AO2 SLP138 T03390122

10-Day Weather Forecast

Almanac

Astronomy

Jul. 26, 2016 Rise Set
Actual Time
Civil Twilight
Nautical Twilight
Astronomical Twilight
Moon
Length of Visible Light
Length of Day
Tomorrow will be .
, % of the Moon is Illuminated

Today's Extremes

State Highs State Lows

Community

WunderPhotos

Upload Photos

1,927,678 photos uploaded!

WunderBlog® & News

Nearby

Air Quality

  Air Quality AQ Index Pollutant
Not available.

Snow Depth

Station Depth Elevation

Earthquake Activity

City Distance Mag. Time & Date
Minimum magnitude displayed is 2.5.

Coastal Water Temperatures

Place Temperature

Stations

Nearby Weather Stations

Station Location Temp. Windchill Dew Point Humidity Wind Precip. Elev Updated Type
                   

Watches & Warnings

There are currently no watches in effect.